College Park, Maryland
Current Conditions -  °F | °C
As of 12:30 PM on Thursday 23 Oct 2014 (Local Time) from KCGS Reporting Station
Overcast Overcast  
Wind Chill: 61°   Ceiling: 4000
Heat Index: 61°   Visibility: 10mi
Dew Point: 45°   Wind: 14mph
Humidity: 55%   Direction: 320°NW
Pressure: 29.87"   Gusts: 23mph
Location:  38.98°N, 76.94°W
Report Text: KCGS 231630Z AUTO 32012G20KT 280V360 10SM OVC040 16/07 A2987 RMK AO1
Loading
Personal Weather Stations






























Interactive Weather Map
Tropical Storm Tracking
New forecast layout! Learn more

10-Day Weather Forecast

Advertisements
Track Severe Weather on mobile